Lapeer, MI

5:57 AM EDT on April 25, 2018 (GMT -0400)
Lapeer

Weather History for KD95 - December, 2012

Change the Weather History Date:

Thursday, December 6, 2012

  Actual Average (KFNT) Record (KFNT)
Temperature  
Mean Temperature 30 °F -  
Max Temperature 37 °F 38 °F 66 °F (1998)
Min Temperature 22 °F 24 °F -6 °F (1926)
Degree Days  
Heating Degree Days 36    
Moisture  
Dew Point 29 °F    
Average Humidity 89    
Maximum Humidity 100    
Minimum Humidity 75    
Precipitation  
Precipitation 0.00 in - - ()
Sea Level Pressure  
Sea Level Pressure 30.14 in    
Wind  
Wind Speed 4 mph (SSE)    
Max Wind Speed 15 mph    
Max Gust Speed 17 mph    
Visibility 10 miles    
Events      
Averages and records for this station are not official NWS values.
T = Trace of Precipitation, MM = Missing Value Source: NWS Daily Summary

Daily Weather History Graph

Daily Weather History Graph

Search for Another Location

Airport or City:

Astronomy

Dec. 06, 2012 Rise Set
Actual Time 7:50 AM EST 4:58 PM EST
Civil Twilight 7:18 AM EST 5:30 PM EST
Nautical Twilight 6:42 AM EST 6:05 PM EST
Astronomical Twilight 6:08 AM EST 6:40 PM EST
Moon No Moon Rise 12:33 PM EST (12/6)
Length of Visible Light 10h 11m
Length of Day
9h 07m
Waning Gibbous, 49% of the Moon is Illuminated
Dec 6
Waning Gibbous
Dec 13
New
Dec 20
First Quarter
Dec 28
Full
Jan 4
Last Quarter

Hourly Weather History & Observations

Time (EST) Temp. Windchill Dew Point Humidity Pressure Visibility Wind Dir Wind Speed Gust Speed Precip Events Conditions
12:13 AM 22.5 °F - 22.5 °F 100% 30.35 in 10.0 mi Calm Calm - N/A   Clear
12:33 AM 23.4 °F - 23.4 °F 100% 30.34 in 10.0 mi Calm Calm - N/A   Clear
12:53 AM 23.2 °F - 23.2 °F 100% 30.34 in 10.0 mi Calm Calm - N/A   Clear
1:13 AM 22.8 °F - 22.8 °F 100% 30.33 in 10.0 mi Calm Calm - N/A   Clear
1:33 AM 24.4 °F 20.1 °F 24.4 °F 100% 30.32 in 10.0 mi SE 3.5 mph - N/A   Clear
1:53 AM 25.3 °F - 25.3 °F 100% 30.32 in 10.0 mi Calm Calm - N/A   Clear
2:13 AM 25.7 °F 21.5 °F 25.7 °F 100% 30.32 in 10.0 mi SSE 3.5 mph - N/A   Clear
2:33 AM 25.3 °F 21.1 °F 25.3 °F 100% 30.31 in 10.0 mi SE 3.5 mph - N/A   Clear
2:53 AM 25.3 °F - 25.3 °F 100% 30.31 in 10.0 mi Calm Calm - N/A   Clear
3:13 AM 25.5 °F 21.3 °F 25.5 °F 100% 30.30 in 10.0 mi SE 3.5 mph - N/A   Clear
3:33 AM 25.9 °F - 25.9 °F 100% 30.30 in 10.0 mi Calm Calm - N/A   Clear
3:53 AM 24.4 °F - 24.4 °F 100% 30.30 in 10.0 mi Calm Calm - N/A   Clear
4:13 AM 25.2 °F - 25.2 °F 100% 30.29 in 10.0 mi Calm Calm - N/A   Clear
4:33 AM 25.7 °F 21.5 °F 25.7 °F 100% 30.28 in 10.0 mi ESE 3.5 mph - N/A   Clear
4:53 AM 26.6 °F - 26.6 °F 100% 30.28 in 10.0 mi Calm Calm - N/A   Clear
5:13 AM 26.6 °F 22.6 °F 26.6 °F 100% 30.29 in 10.0 mi SE 3.5 mph - N/A   Clear
5:32 AM 27.1 °F - 27.1 °F 100% 30.29 in 10.0 mi Calm Calm - N/A   Clear
5:53 AM 27.1 °F - 27.1 °F 100% 30.28 in 10.0 mi Calm Calm - N/A   Clear
6:13 AM 27.1 °F - 27.1 °F 100% 30.28 in 10.0 mi Calm Calm - N/A   Clear
6:33 AM 27.1 °F 23.2 °F 27.1 °F 100% 30.27 in 10.0 mi SE 3.5 mph - N/A   Clear
6:53 AM 26.8 °F 21.4 °F 26.8 °F 100% 30.26 in 10.0 mi ESE 4.6 mph - N/A   Clear
7:13 AM 27.0 °F 21.6 °F 27.0 °F 100% 30.25 in 10.0 mi SE 4.6 mph - N/A   Clear
7:33 AM 26.6 °F 21.2 °F 26.6 °F 100% 30.24 in 10.0 mi ESE 4.6 mph - N/A   Clear
7:53 AM 26.6 °F 20.0 °F 26.6 °F 100% 30.23 in 10.0 mi SE 5.8 mph - N/A   Clear
8:13 AM 26.6 °F 22.6 °F 26.6 °F 100% 30.23 in 10.0 mi SE 3.5 mph - N/A   Clear
8:33 AM 27.1 °F 21.8 °F 27.1 °F 100% 30.22 in 10.0 mi SE 4.6 mph - N/A   Clear
8:53 AM 28.0 °F 24.2 °F 28.0 °F 100% 30.21 in 10.0 mi SE 3.5 mph - N/A   Clear
9:13 AM 29.3 °F 24.3 °F 29.3 °F 100% 30.20 in 10.0 mi SE 4.6 mph - N/A   Clear
9:33 AM 30.7 °F 26.0 °F 30.7 °F 100% 30.20 in 10.0 mi SE 4.6 mph - N/A   Clear
9:53 AM 31.5 °F 26.8 °F 31.5 °F 100% 30.20 in 10.0 mi SSE 4.6 mph - N/A   Clear
10:13 AM 32.0 °F 27.5 °F 32.0 °F 100% 30.19 in 10.0 mi SSE 4.6 mph - N/A   Clear
10:33 AM 32.4 °F 26.9 °F 32.4 °F 100% 30.18 in 10.0 mi SSE 5.8 mph - N/A   Scattered Clouds
10:53 AM 33.8 °F 25.8 °F 33.8 °F 100% 30.18 in 10.0 mi South 10.4 mph 17.3 mph N/A   Mostly Cloudy
11:13 AM 34.3 °F 25.9 °F 34.2 °F 99% 30.16 in 10.0 mi SSE 11.5 mph 16.1 mph N/A   Mostly Cloudy
11:33 AM 34.7 °F 26.4 °F 34.0 °F 97% 30.15 in 10.0 mi South 11.5 mph - N/A   Overcast
11:53 AM 35.1 °F 25.5 °F 33.3 °F 93% 30.15 in 10.0 mi South 15.0 mph - N/A   Mostly Cloudy
12:13 PM 35.4 °F 26.8 °F 31.1 °F 84% 30.13 in 10.0 mi South 12.7 mph 16.1 mph N/A   Mostly Cloudy
12:33 PM 35.6 °F 28.0 °F 31.1 °F 84% 30.12 in 10.0 mi South 10.4 mph 16.1 mph N/A   Mostly Cloudy
12:53 PM 36.1 °F 28.2 °F 30.9 °F 81% 30.11 in 10.0 mi South 11.5 mph - N/A   Mostly Cloudy
1:13 PM 36.7 °F 30.5 °F 30.9 °F 80% 30.09 in 10.0 mi South 8.1 mph - N/A   Scattered Clouds
1:33 PM 37.2 °F 30.0 °F 30.9 °F 78% 30.08 in 10.0 mi South 10.4 mph - N/A   Clear
1:53 PM 37.6 °F 31.6 °F 30.9 °F 77% 30.07 in 10.0 mi South 8.1 mph - N/A   Clear
2:13 PM 37.8 °F 32.5 °F 30.7 °F 76% 30.07 in 10.0 mi South 6.9 mph - N/A   Clear
2:33 PM 37.9 °F 32.1 °F 30.7 °F 75% 30.06 in 10.0 mi SSW 8.1 mph - N/A   Clear
2:53 PM 37.4 °F 32.8 °F 30.4 °F 76% 30.05 in 10.0 mi South 5.8 mph - N/A   Clear
3:13 PM 37.4 °F 32.1 °F 30.2 °F 75% 30.05 in 10.0 mi South 6.9 mph - N/A   Clear
3:33 PM 37.4 °F 32.8 °F 30.4 °F 76% 30.03 in 10.0 mi SSE 5.8 mph - N/A   Clear
3:53 PM 37.0 °F 33.3 °F 30.0 °F 76% 30.03 in 10.0 mi SE 4.6 mph - N/A   Clear
4:13 PM 37.0 °F 33.3 °F 29.7 °F 75% 30.02 in 10.0 mi SSE 4.6 mph - N/A   Clear
4:33 PM 36.7 °F 34.1 °F 29.5 °F 75% 30.03 in 10.0 mi South 3.5 mph - N/A   Clear
4:53 PM 36.3 °F - 29.3 °F 76% 30.02 in 10.0 mi Calm Calm - N/A   Clear
5:13 PM 36.0 °F 33.3 °F 29.3 °F 77% 30.02 in 10.0 mi South 3.5 mph - N/A   Clear
5:33 PM 36.0 °F 30.3 °F 28.9 °F 76% 30.02 in 10.0 mi SE 6.9 mph - N/A   Scattered Clouds
5:53 PM 35.8 °F 30.1 °F 28.8 °F 76% 30.00 in 10.0 mi SSE 6.9 mph - N/A   Clear
6:13 PM 35.8 °F 31.9 °F 29.1 °F 77% 30.00 in 10.0 mi SSE 4.6 mph - N/A   Clear
6:33 PM 35.8 °F 30.9 °F 29.3 °F 77% 30.00 in 10.0 mi South 5.8 mph - N/A   Clear
6:53 PM 35.8 °F 30.1 °F 29.3 °F 77% 29.99 in 10.0 mi SSE 6.9 mph - N/A   Clear
7:13 PM 35.8 °F 30.1 °F 29.5 °F 78% 29.99 in 10.0 mi SSE 6.9 mph - N/A   Clear
7:33 PM 35.8 °F 30.9 °F 29.7 °F 78% 29.99 in 10.0 mi South 5.8 mph - N/A   Scattered Clouds
7:53 PM 35.8 °F 30.1 °F 29.8 °F 79% 29.98 in 10.0 mi SSE 6.9 mph - N/A   Scattered Clouds
8:13 PM 36.0 °F 29.6 °F 30.0 °F 79% 29.99 in 10.0 mi South 8.1 mph - N/A   Mostly Cloudy
8:33 PM 36.1 °F 31.4 °F 30.2 °F 79% 29.98 in 10.0 mi South 5.8 mph - N/A   Overcast
8:53 PM 36.3 °F 30.1 °F 30.4 °F 79% 29.98 in 10.0 mi South 8.1 mph - N/A   Overcast
9:33 PM 35.8 °F 30.1 °F 30.2 °F 80% 29.97 in 10.0 mi South 6.9 mph - N/A   Mostly Cloudy
9:53 PM 35.4 °F 29.7 °F 30.2 °F 81% 29.96 in 10.0 mi South 6.9 mph - N/A   Scattered Clouds
10:13 PM 35.6 °F 29.9 °F 30.6 °F 82% 29.96 in 10.0 mi South 6.9 mph - N/A   Scattered Clouds
10:33 PM 35.8 °F 33.0 °F 30.9 °F 82% 29.97 in 10.0 mi WSW 3.5 mph - N/A   Scattered Clouds
10:53 PM 36.1 °F - 31.1 °F 82% 29.96 in 10.0 mi Calm Calm - N/A   Mostly Cloudy
11:13 PM 36.3 °F 30.1 °F 31.3 °F 82% 29.96 in 10.0 mi South 8.1 mph - N/A   Overcast
11:33 PM 36.7 °F 30.5 °F 31.5 °F 81% 29.95 in 10.0 mi South 8.1 mph - N/A   Overcast
11:53 PM 37.2 °F 32.6 °F 31.6 °F 80% 29.94 in 10.0 mi South 5.8 mph - N/A   Overcast